createdAt,value
2018-05-18T00:00:43.953Z,1012.13
2018-05-18T00:01:43.947Z,1012.15
2018-05-18T00:02:43.920Z,1012.16
2018-05-18T00:03:43.910Z,1012.13
2018-05-18T00:04:43.890Z,1012.16
2018-05-18T00:05:43.877Z,1012.17
2018-05-18T00:06:43.861Z,1012.18
2018-05-18T00:07:43.846Z,1012.12
2018-05-18T00:08:43.833Z,1012.14
2018-05-18T00:09:43.816Z,1012.13
2018-05-18T00:10:43.802Z,1012.13
2018-05-18T00:11:43.786Z,1012.16
2018-05-18T00:12:43.771Z,1012.17
2018-05-18T00:13:43.756Z,1012.14
2018-05-18T00:14:43.739Z,1012.23
2018-05-18T00:15:43.726Z,1012.19
2018-05-18T00:16:43.712Z,1012.21
2018-05-18T00:17:43.697Z,1012.16
2018-05-18T00:18:43.681Z,1012.20
2018-05-18T00:19:43.665Z,1012.20
2018-05-18T00:20:43.652Z,1012.27
2018-05-18T00:21:43.636Z,1012.22
2018-05-18T00:22:43.621Z,1012.20
2018-05-18T00:23:43.606Z,1012.24
2018-05-18T00:24:43.595Z,1012.20
2018-05-18T00:25:43.575Z,1012.24
2018-05-18T00:26:43.560Z,1012.29
2018-05-18T00:27:43.542Z,1012.29
2018-05-18T00:28:43.528Z,1012.29
2018-05-18T00:29:43.513Z,1012.28
2018-05-18T00:30:43.501Z,1012.32
2018-05-18T00:31:43.482Z,1012.32
2018-05-18T00:32:43.467Z,1012.30
2018-05-18T00:33:43.452Z,1012.27
2018-05-18T00:34:43.437Z,1012.27
2018-05-18T00:35:43.421Z,1012.31
2018-05-18T00:36:43.405Z,1012.31
2018-05-18T00:37:43.394Z,1012.33
2018-05-18T00:38:43.381Z,1012.31
2018-05-18T00:39:43.362Z,1012.35
2018-05-18T00:40:43.351Z,1012.30
2018-05-18T00:41:43.331Z,1012.29
2018-05-18T00:42:43.315Z,1012.24
2018-05-18T00:43:43.301Z,1012.27
2018-05-18T00:44:43.285Z,1012.29
2018-05-18T00:45:43.270Z,1012.30
2018-05-18T00:46:43.257Z,1012.33
2018-05-18T00:47:43.238Z,1012.32
2018-05-18T00:48:43.223Z,1012.29
2018-05-18T00:49:43.213Z,1012.30
2018-05-18T00:50:43.198Z,1012.29
2018-05-18T00:51:43.178Z,1012.26
2018-05-18T00:52:43.161Z,1012.28
2018-05-18T00:53:43.146Z,1012.32
2018-05-18T00:54:43.133Z,1012.30
2018-05-18T00:55:43.115Z,1012.33
2018-05-18T00:56:43.101Z,1012.35
2018-05-18T00:57:43.085Z,1012.33
2018-05-18T00:58:43.071Z,1012.32
2018-05-18T00:59:43.054Z,1012.31
2018-05-18T01:00:43.040Z,1012.35
2018-05-18T01:01:43.024Z,1012.31
2018-05-18T01:02:43.008Z,1012.30
2018-05-18T01:03:42.991Z,1012.32
2018-05-18T01:04:42.975Z,1012.31
2018-05-18T01:05:42.963Z,1012.36
2018-05-18T01:06:42.944Z,1012.35
2018-05-18T01:07:42.926Z,1012.33
2018-05-18T01:08:42.912Z,1012.37
2018-05-18T01:09:42.897Z,1012.38
2018-05-18T01:10:42.880Z,1012.43
2018-05-18T01:11:43.116Z,1012.47
2018-05-18T01:12:42.850Z,1012.40
2018-05-18T01:13:42.835Z,1012.39
2018-05-18T01:14:42.822Z,1012.40
2018-05-18T01:15:42.813Z,1012.38
2018-05-18T01:16:42.788Z,1012.37
2018-05-18T01:17:42.771Z,1012.37
2018-05-18T01:18:42.758Z,1012.37
2018-05-18T01:19:42.740Z,1012.35
2018-05-18T01:20:42.725Z,1012.39
2018-05-18T01:21:42.713Z,1012.37
2018-05-18T01:22:42.697Z,1012.40
2018-05-18T01:23:42.678Z,1012.42
2018-05-18T01:24:42.668Z,1012.36
2018-05-18T01:25:42.646Z,1012.40
2018-05-18T01:26:42.630Z,1012.39
2018-05-18T01:27:42.616Z,1012.38
2018-05-18T01:28:42.599Z,1012.40
2018-05-18T01:29:42.585Z,1012.43
2018-05-18T01:30:42.567Z,1012.41
2018-05-18T01:31:42.550Z,1012.38
2018-05-18T01:32:42.536Z,1012.36
2018-05-18T01:33:42.523Z,1012.39
2018-05-18T01:34:42.503Z,1012.42
2018-05-18T01:35:42.488Z,1012.34
2018-05-18T01:36:42.474Z,1012.36
2018-05-18T01:37:42.464Z,1012.41
2018-05-18T01:38:42.442Z,1012.38
2018-05-18T01:39:42.426Z,1012.40
2018-05-18T01:40:42.413Z,1012.43
2018-05-18T01:41:42.396Z,1012.42
2018-05-18T01:42:42.381Z,1012.41
2018-05-18T01:43:42.361Z,1012.40
2018-05-18T01:44:42.345Z,1012.37
2018-05-18T01:45:42.335Z,1012.38
2018-05-18T01:46:42.314Z,1012.33
2018-05-18T01:47:42.371Z,1012.35
2018-05-18T01:48:42.289Z,1012.35
2018-05-18T01:49:42.266Z,1012.34
2018-05-18T01:50:42.250Z,1012.36
2018-05-18T01:51:42.244Z,1012.39
2018-05-18T01:52:42.220Z,1012.40
2018-05-18T01:53:42.201Z,1012.36
2018-05-18T01:54:42.191Z,1012.37
2018-05-18T01:55:42.172Z,1012.35
2018-05-18T01:56:42.157Z,1012.39
2018-05-18T01:57:42.143Z,1012.43
2018-05-18T01:58:42.125Z,1012.39
2018-05-18T01:59:42.109Z,1012.41
2018-05-18T02:00:42.092Z,1012.43
2018-05-18T02:01:42.084Z,1012.46
2018-05-18T02:02:42.062Z,1012.43
2018-05-18T02:03:42.043Z,1012.43
2018-05-18T02:04:42.030Z,1012.44
2018-05-18T02:05:42.013Z,1012.43
2018-05-18T02:06:41.997Z,1012.42
2018-05-18T02:07:41.980Z,1012.42
2018-05-18T02:08:41.963Z,1012.50
2018-05-18T02:09:41.950Z,1012.46
2018-05-18T02:10:41.932Z,1012.47
2018-05-18T02:11:41.917Z,1012.48
2018-05-18T02:12:41.903Z,1012.52
2018-05-18T02:13:41.884Z,1012.51
2018-05-18T02:14:41.873Z,1012.54
2018-05-18T02:15:41.852Z,1012.51
2018-05-18T02:16:41.835Z,1012.51
2018-05-18T02:17:41.822Z,1012.50
2018-05-18T02:18:41.806Z,1012.52
2018-05-18T02:19:41.787Z,1012.50
2018-05-18T02:20:41.777Z,1012.54
2018-05-18T02:21:41.755Z,1012.53
2018-05-18T02:22:41.739Z,1012.53
2018-05-18T02:23:41.723Z,1012.55
2018-05-18T02:24:41.715Z,1012.56
2018-05-18T02:25:41.696Z,1012.61
2018-05-18T02:26:41.675Z,1012.58
2018-05-18T02:27:41.659Z,1012.61
2018-05-18T02:28:41.643Z,1012.59
2018-05-18T02:29:41.628Z,1012.59
2018-05-18T02:30:41.670Z,1012.61
2018-05-18T02:31:41.592Z,1012.61
2018-05-18T02:32:41.583Z,1012.62
2018-05-18T02:33:41.567Z,1012.63
2018-05-18T02:34:41.550Z,1012.65
2018-05-18T02:35:41.536Z,1012.62
2018-05-18T02:36:41.520Z,1012.64
2018-05-18T02:37:41.503Z,1012.63
2018-05-18T02:38:41.483Z,1012.62
2018-05-18T02:39:41.464Z,1012.65
2018-05-18T02:40:41.453Z,1012.61
2018-05-18T02:41:41.436Z,1012.64
2018-05-18T02:42:41.418Z,1012.63
2018-05-18T02:43:41.401Z,1012.67
2018-05-18T02:44:41.389Z,1012.66
2018-05-18T02:45:41.370Z,1012.66
2018-05-18T02:46:41.361Z,1012.67
2018-05-18T02:47:41.336Z,1012.61
2018-05-18T02:48:41.322Z,1012.58
2018-05-18T02:49:41.306Z,1012.57
2018-05-18T02:50:41.290Z,1012.58
2018-05-18T02:51:41.282Z,1012.57
2018-05-18T02:52:41.258Z,1012.54
2018-05-18T02:53:41.240Z,1012.50
2018-05-18T02:54:41.224Z,1012.50
2018-05-18T02:55:41.209Z,1012.48
2018-05-18T02:56:41.191Z,1012.55
2018-05-18T02:57:41.177Z,1012.55
2018-05-18T02:58:41.160Z,1012.55
2018-05-18T02:59:41.143Z,1012.58
2018-05-18T03:00:41.124Z,1012.59
2018-05-18T03:01:41.121Z,1012.61
2018-05-18T03:02:41.095Z,1012.57
2018-05-18T03:03:41.080Z,1012.60
2018-05-18T03:04:41.060Z,1012.64
2018-05-18T03:05:41.044Z,1012.64
2018-05-18T03:06:41.030Z,1012.63
2018-05-18T03:07:41.012Z,1012.64
2018-05-18T03:08:40.996Z,1012.63
2018-05-18T03:09:40.984Z,1012.64
2018-05-18T03:10:40.965Z,1012.65
2018-05-18T03:11:40.951Z,1012.66
2018-05-18T03:12:40.932Z,1012.67
2018-05-18T03:13:40.919Z,1012.71
2018-05-18T03:14:40.903Z,1012.72
2018-05-18T03:15:40.887Z,1012.75
2018-05-18T03:16:40.870Z,1012.77
2018-05-18T03:17:40.852Z,1012.77
2018-05-18T03:18:40.835Z,1012.78
2018-05-18T03:19:40.824Z,1012.75
2018-05-18T03:20:40.802Z,1012.77
2018-05-18T03:21:40.786Z,1012.78
2018-05-18T03:22:40.775Z,1012.77
2018-05-18T03:23:40.756Z,1012.78
2018-05-18T03:24:40.741Z,1012.75
2018-05-18T03:25:40.720Z,1012.75
2018-05-18T03:26:40.704Z,1012.76
2018-05-18T03:27:40.691Z,1012.77
2018-05-18T03:28:40.674Z,1012.79
2018-05-18T03:29:40.657Z,1012.78
2018-05-18T03:30:40.641Z,1012.80
2018-05-18T03:31:40.623Z,1012.82
2018-05-18T03:32:40.607Z,1012.81
2018-05-18T03:33:40.593Z,1012.77
2018-05-18T03:34:40.575Z,1012.77
2018-05-18T03:35:40.559Z,1012.76
2018-05-18T03:36:40.593Z,1012.76
2018-05-18T03:37:40.525Z,1012.89
2018-05-18T03:38:40.512Z,1012.87
2018-05-18T03:39:40.491Z,1012.86
2018-05-18T03:40:40.479Z,1012.93
2018-05-18T03:41:40.459Z,1012.87
2018-05-18T03:42:40.446Z,1012.89
2018-05-18T03:43:40.427Z,1012.90
2018-05-18T03:44:40.418Z,1012.90
2018-05-18T03:45:40.395Z,1012.91
2018-05-18T03:46:40.379Z,1012.98
2018-05-18T03:47:40.368Z,1012.92
2018-05-18T03:48:40.348Z,1012.91
2018-05-18T03:49:40.331Z,1012.95
2018-05-18T03:50:40.315Z,1012.95
2018-05-18T03:51:40.297Z,1012.97
2018-05-18T03:52:40.279Z,1012.98
2018-05-18T03:53:40.264Z,1012.99
2018-05-18T03:54:40.249Z,1012.98
2018-05-18T03:55:40.230Z,1012.96
2018-05-18T03:56:40.217Z,1012.95
2018-05-18T03:57:40.203Z,1013.01
2018-05-18T03:58:40.185Z,1012.96
2018-05-18T03:59:40.168Z,1013.02
2018-05-18T04:00:40.159Z,1012.96
2018-05-18T04:01:40.135Z,1012.97
2018-05-18T04:02:40.119Z,1012.98
2018-05-18T04:03:40.102Z,1012.97
2018-05-18T04:04:40.085Z,1013.00
2018-05-18T04:05:40.069Z,1013.02
2018-05-18T04:06:40.054Z,1013.01
2018-05-18T04:07:40.037Z,1012.99
2018-05-18T04:08:40.030Z,1013.02
2018-05-18T04:09:40.006Z,1013.02
2018-05-18T04:10:39.989Z,1013.02
2018-05-18T04:11:39.980Z,1013.03
2018-05-18T04:12:39.955Z,1013.03
2018-05-18T04:13:39.941Z,1013.07
2018-05-18T04:14:39.927Z,1013.07
2018-05-18T04:15:39.908Z,1013.07
2018-05-18T04:16:39.893Z,1013.07
2018-05-18T04:17:39.875Z,1013.08
2018-05-18T04:18:39.859Z,1013.10
2018-05-18T04:19:39.846Z,1013.08
2018-05-18T04:20:39.826Z,1013.05
2018-05-18T04:21:39.812Z,1013.07
2018-05-18T04:22:39.797Z,1013.05
2018-05-18T04:23:39.783Z,1013.07
2018-05-18T04:24:39.761Z,1013.05
2018-05-18T04:25:39.747Z,1013.07
2018-05-18T04:26:39.731Z,1013.06
2018-05-18T04:27:39.713Z,1013.09
2018-05-18T04:28:39.698Z,1013.11
2018-05-18T04:29:39.683Z,1013.10
2018-05-18T04:30:39.666Z,1013.06
2018-05-18T04:31:39.649Z,1013.08
2018-05-18T04:32:39.633Z,1013.07
2018-05-18T04:33:39.618Z,1013.10
2018-05-18T04:34:39.602Z,1013.10
2018-05-18T04:35:39.586Z,1013.15
2018-05-18T04:36:39.569Z,1013.09
2018-05-18T04:37:39.554Z,1013.13
2018-05-18T04:38:39.542Z,1013.12
2018-05-18T04:39:39.521Z,1013.16
2018-05-18T04:40:39.504Z,1013.19
2018-05-18T04:41:39.494Z,1013.19
2018-05-18T04:42:39.474Z,1013.17
2018-05-18T04:43:39.455Z,1013.21
2018-05-18T04:44:39.443Z,1013.21
2018-05-18T04:45:39.426Z,1013.22
2018-05-18T04:46:39.409Z,1013.25
2018-05-18T04:47:39.392Z,1013.24
2018-05-18T04:48:39.377Z,1013.21
2018-05-18T04:49:39.360Z,1013.27
2018-05-18T04:50:39.344Z,1013.25
2018-05-18T04:51:39.328Z,1013.26
2018-05-18T04:52:39.312Z,1013.25
2018-05-18T04:53:39.295Z,1013.26
2018-05-18T04:54:39.281Z,1013.26
2018-05-18T04:55:39.262Z,1013.26
2018-05-18T04:56:39.247Z,1013.31
2018-05-18T04:57:39.234Z,1013.33
2018-05-18T04:58:39.220Z,1013.38
2018-05-18T04:59:39.199Z,1013.39
2018-05-18T05:00:39.188Z,1013.40
2018-05-18T05:01:39.173Z,1013.41
2018-05-18T05:02:39.160Z,1013.48
2018-05-18T05:03:39.135Z,1013.44
2018-05-18T05:04:39.124Z,1013.43
2018-05-18T05:05:39.106Z,1013.50
2018-05-18T05:06:39.089Z,1013.49
2018-05-18T05:07:39.077Z,1013.49
2018-05-18T05:08:39.059Z,1013.50
2018-05-18T05:09:39.042Z,1013.53
2018-05-18T05:10:39.035Z,1013.55
2018-05-18T05:11:39.010Z,1013.53
2018-05-18T05:12:39.004Z,1013.55
2018-05-18T05:13:38.984Z,1013.59
2018-05-18T05:14:38.973Z,1013.59
2018-05-18T05:15:38.956Z,1013.61
2018-05-18T05:16:38.941Z,1013.64
2018-05-18T05:17:38.921Z,1013.66
2018-05-18T05:18:38.902Z,1013.67
2018-05-18T05:19:38.887Z,1013.65
2018-05-18T05:20:38.872Z,1013.69
2018-05-18T05:21:38.856Z,1013.70
2018-05-18T05:22:38.847Z,1013.68
2018-05-18T05:23:38.914Z,1013.65
2018-05-18T05:24:38.814Z,1013.72
2018-05-18T05:25:38.794Z,1013.69
2018-05-18T05:26:38.782Z,1013.72
2018-05-18T05:27:38.765Z,1013.69
2018-05-18T05:28:38.749Z,1013.70
2018-05-18T05:29:38.735Z,1013.69
2018-05-18T05:30:38.724Z,1013.73
2018-05-18T05:31:38.708Z,1013.70
2018-05-18T05:32:38.689Z,1013.70
2018-05-18T05:33:38.678Z,1013.72
2018-05-18T05:34:38.665Z,1013.75
2018-05-18T05:35:38.642Z,1013.74
2018-05-18T05:36:38.653Z,1013.80
2018-05-18T05:37:38.613Z,1013.79
2018-05-18T05:38:38.601Z,1013.78
2018-05-18T05:39:38.583Z,1013.76
2018-05-18T05:40:38.570Z,1013.83
2018-05-18T05:41:38.572Z,1013.82
2018-05-18T05:42:38.544Z,1013.82
2018-05-18T05:43:38.529Z,1013.82
2018-05-18T05:44:38.513Z,1013.79
2018-05-18T05:45:38.499Z,1013.83
2018-05-18T05:46:38.481Z,1013.82
2018-05-18T05:47:38.465Z,1013.80
2018-05-18T05:48:38.453Z,1013.83
2018-05-18T05:49:38.437Z,1013.76
2018-05-18T05:50:38.424Z,1013.77
2018-05-18T05:51:38.408Z,1013.85
2018-05-18T05:52:38.395Z,1013.86
2018-05-18T05:53:38.382Z,1013.81
2018-05-18T05:54:38.366Z,1013.77
2018-05-18T05:55:38.350Z,1013.83
2018-05-18T05:56:38.334Z,1013.87
2018-05-18T05:57:38.320Z,1013.88
2018-05-18T05:58:38.307Z,1013.89
2018-05-18T05:59:38.299Z,1013.96
2018-05-18T06:00:38.279Z,1013.92
2018-05-18T06:01:38.262Z,1013.97
2018-05-18T06:02:38.251Z,1013.91
2018-05-18T06:03:38.239Z,1013.94
2018-05-18T06:04:38.221Z,1013.96
2018-05-18T06:05:38.219Z,1013.92
2018-05-18T06:06:38.195Z,1013.88
2018-05-18T06:07:38.179Z,1013.89
2018-05-18T06:08:38.165Z,1013.90
2018-05-18T06:09:38.151Z,1013.90
2018-05-18T06:10:38.162Z,1013.93
2018-05-18T06:11:38.119Z,1013.98
2018-05-18T06:12:38.104Z,1013.97
2018-05-18T06:13:38.091Z,1013.92
2018-05-18T06:14:38.079Z,1013.94
2018-05-18T06:15:38.065Z,1013.99
2018-05-18T06:16:38.048Z,1013.95
2018-05-18T06:17:38.039Z,1013.92
2018-05-18T06:18:38.026Z,1013.94
2018-05-18T06:19:38.084Z,1013.99
2018-05-18T06:20:37.991Z,1013.96
2018-05-18T06:21:37.978Z,1014.00
2018-05-18T06:22:37.969Z,1013.99
2018-05-18T06:23:37.957Z,1013.96
2018-05-18T06:24:37.937Z,1013.92
2018-05-18T06:25:37.922Z,1013.91
2018-05-18T06:26:37.910Z,1013.92
2018-05-18T06:27:37.894Z,1013.94
2018-05-18T06:28:37.942Z,1013.90
2018-05-18T06:29:37.868Z,1013.97
2018-05-18T06:30:37.856Z,1013.93
2018-05-18T06:31:37.846Z,1013.94
2018-05-18T06:32:37.828Z,1014.01
2018-05-18T06:33:37.814Z,1013.94
2018-05-18T06:34:37.804Z,1013.94
2018-05-18T06:35:37.784Z,1013.97
2018-05-18T06:36:37.773Z,1013.98
2018-05-18T06:37:37.758Z,1014.01
2018-05-18T06:38:37.744Z,1014.03
2018-05-18T06:39:37.729Z,1013.94
2018-05-18T06:40:37.720Z,1013.98
2018-05-18T06:41:37.707Z,1013.93
2018-05-18T06:42:37.690Z,1013.99
2018-05-18T06:43:37.676Z,1013.99
2018-05-18T06:44:37.663Z,1014.01
2018-05-18T06:45:37.649Z,1014.04
2018-05-18T06:46:37.636Z,1014.02
2018-05-18T06:47:37.629Z,1014.04
2018-05-18T06:48:37.611Z,1014.02
2018-05-18T06:49:37.595Z,1013.99
2018-05-18T06:50:37.590Z,1014.03
2018-05-18T06:51:37.571Z,1014.02
2018-05-18T06:52:37.600Z,1014.06
2018-05-18T06:53:37.541Z,1014.07
2018-05-18T06:54:37.530Z,1014.09
2018-05-18T06:55:37.530Z,1014.07
2018-05-18T06:56:37.502Z,1014.13
2018-05-18T06:57:37.490Z,1014.10
2018-05-18T06:58:37.529Z,1014.07
2018-05-18T06:59:37.463Z,1014.05
2018-05-18T07:00:37.452Z,1014.10
2018-05-18T07:01:37.436Z,1014.07
2018-05-18T07:02:37.424Z,1014.11
2018-05-18T07:03:37.411Z,1014.12
2018-05-18T07:04:37.407Z,1014.10
2018-05-18T07:05:37.386Z,1014.11
2018-05-18T07:06:37.374Z,1014.20
2018-05-18T07:07:37.358Z,1014.14
2018-05-18T07:08:37.347Z,1014.19
2018-05-18T07:09:37.334Z,1014.17
2018-05-18T07:10:37.374Z,1014.30
2018-05-18T07:11:37.309Z,1014.39
2018-05-18T07:12:37.294Z,1014.42
2018-05-18T07:13:37.282Z,1014.46
2018-05-18T07:14:37.275Z,1014.47
2018-05-18T07:15:37.258Z,1014.40
2018-05-18T07:16:37.330Z,1014.45
2018-05-18T07:17:37.234Z,1014.57
2018-05-18T07:18:37.222Z,1014.51
2018-05-18T07:19:37.211Z,1014.39
2018-05-18T07:20:37.203Z,1014.36
2018-05-18T07:21:37.188Z,1014.36
2018-05-18T07:22:37.174Z,1014.41
2018-05-18T07:23:37.159Z,1014.68
2018-05-18T07:24:37.150Z,1014.75
2018-05-18T07:25:37.133Z,1014.74
2018-05-18T07:26:37.123Z,1014.77
2018-05-18T07:27:37.111Z,1014.83
2018-05-18T07:28:37.100Z,1014.79
2018-05-18T07:29:37.089Z,1014.71
2018-05-18T07:30:37.075Z,1014.68
2018-05-18T07:31:37.060Z,1014.62
2018-05-18T07:32:37.050Z,1014.47
2018-05-18T07:33:37.038Z,1014.44
2018-05-18T07:34:37.028Z,1014.40
2018-05-18T07:35:37.014Z,1014.34
2018-05-18T07:36:37.003Z,1014.77
2018-05-18T07:37:36.988Z,1014.40
2018-05-18T07:38:36.980Z,1014.47
2018-05-18T07:39:36.965Z,1014.39
2018-05-18T07:40:36.953Z,1014.39
2018-05-18T07:41:36.940Z,1014.51
2018-05-18T07:42:36.929Z,1014.40
2018-05-18T07:43:36.921Z,1014.33
2018-05-18T07:44:36.906Z,1014.35
2018-05-18T07:45:36.899Z,1014.64
2018-05-18T07:46:36.888Z,1015.09
2018-05-18T07:47:36.872Z,1014.76
2018-05-18T07:48:36.861Z,1015.87
2018-05-18T07:49:36.853Z,1023.88
2018-05-18T07:50:36.837Z,1025.04
2018-05-18T07:51:36.826Z,1019.59
2018-05-18T07:52:36.816Z,1015.98
2018-05-18T07:53:36.893Z,1014.37
2018-05-18T07:54:36.797Z,1014.36
2018-05-18T07:55:36.783Z,1014.73
2018-05-18T07:56:36.774Z,1018.44
2018-05-18T07:57:36.764Z,1018.38
2018-05-18T07:58:36.755Z,1014.54
2018-05-18T07:59:36.772Z,1014.38
2018-05-18T08:00:36.734Z,1014.61
2018-05-18T08:01:36.725Z,1014.86
2018-05-18T08:02:36.715Z,1015.39
2018-05-18T08:03:36.703Z,1015.59
2018-05-18T08:04:36.694Z,1017.02
2018-05-18T08:05:36.681Z,1015.46
2018-05-18T08:06:36.672Z,1014.57
2018-05-18T08:07:36.664Z,1015.45
2018-05-18T08:08:36.659Z,1014.59
2018-05-18T08:09:36.643Z,1014.82
2018-05-18T08:10:36.634Z,1016.12
2018-05-18T08:11:36.629Z,1014.99
2018-05-18T08:12:36.614Z,1014.65
2018-05-18T08:13:36.605Z,1014.72
2018-05-18T08:14:36.598Z,1014.66
2018-05-18T08:15:36.588Z,1014.62
2018-05-18T08:16:36.583Z,1014.56
2018-05-18T08:17:36.568Z,1014.51
2018-05-18T08:18:36.559Z,1014.73
2018-05-18T08:19:36.559Z,1014.73
2018-05-18T08:20:36.546Z,1014.77
2018-05-18T08:21:36.541Z,1014.65
2018-05-18T08:22:36.524Z,1014.87
2018-05-18T08:23:36.516Z,1014.69
2018-05-18T08:24:36.502Z,1014.89
2018-05-18T08:25:36.496Z,1014.99
2018-05-18T08:26:36.487Z,1014.96
2018-05-18T08:27:36.516Z,1014.76
2018-05-18T08:28:36.467Z,1014.63
2018-05-18T08:29:36.459Z,1014.74
2018-05-18T08:30:36.451Z,1014.78
2018-05-18T08:31:36.443Z,1014.83
2018-05-18T08:32:36.432Z,1015.00
2018-05-18T08:33:36.429Z,1015.01
2018-05-18T08:34:36.420Z,1014.74
2018-05-18T08:35:36.413Z,1014.71
2018-05-18T08:36:36.397Z,1014.76
2018-05-18T08:37:36.390Z,1014.86
2018-05-18T08:38:36.381Z,1014.77
2018-05-18T08:39:36.372Z,1014.77
2018-05-18T08:40:36.364Z,1014.71
2018-05-18T08:41:36.356Z,1014.75
2018-05-18T08:42:36.347Z,1014.75
2018-05-18T08:43:36.340Z,1014.78
2018-05-18T08:44:36.331Z,1014.85
2018-05-18T08:45:36.320Z,1014.79
2018-05-18T08:46:36.311Z,1014.81
2018-05-18T08:47:36.301Z,1014.81
2018-05-18T08:48:36.294Z,1014.86
2018-05-18T08:49:36.288Z,1014.92
2018-05-18T08:50:36.275Z,1014.93
2018-05-18T08:51:36.273Z,1014.86
2018-05-18T08:52:36.260Z,1014.81
2018-05-18T08:53:36.252Z,1014.77
2018-05-18T08:54:36.245Z,1014.77
2018-05-18T08:55:36.236Z,1014.84
2018-05-18T08:56:36.234Z,1014.93
2018-05-18T08:57:36.218Z,1014.94
2018-05-18T08:58:36.210Z,1014.97
2018-05-18T08:59:36.199Z,1015.09
2018-05-18T09:00:36.224Z,1015.03
2018-05-18T09:01:36.185Z,1015.00
2018-05-18T09:02:36.173Z,1015.13
2018-05-18T09:03:36.170Z,1015.12
2018-05-18T09:04:36.161Z,1015.01
2018-05-18T09:05:36.161Z,1014.95
2018-05-18T09:06:36.144Z,1014.95
2018-05-18T09:07:36.134Z,1014.93
2018-05-18T09:08:36.123Z,1014.99
2018-05-18T09:09:36.115Z,1014.99
2018-05-18T09:10:36.109Z,1014.96
2018-05-18T09:11:36.103Z,1014.91
2018-05-18T09:12:36.092Z,1014.91
2018-05-18T09:13:36.086Z,1014.89
2018-05-18T09:14:36.080Z,1014.86
2018-05-18T09:15:36.065Z,1014.91
2018-05-18T09:16:36.065Z,1014.92
2018-05-18T09:17:36.050Z,1014.89
2018-05-18T09:18:36.046Z,1014.92
2018-05-18T09:19:36.033Z,1014.93
2018-05-18T09:20:36.023Z,1014.98
2018-05-18T09:21:36.015Z,1014.91
2018-05-18T09:22:36.008Z,1014.94
2018-05-18T09:23:36.006Z,1014.99
2018-05-18T09:24:35.989Z,1014.97
2018-05-18T09:25:35.982Z,1015.01
2018-05-18T09:26:35.972Z,1015.01
2018-05-18T09:27:35.965Z,1015.03
2018-05-18T09:28:35.956Z,1015.06
2018-05-18T09:29:35.950Z,1015.06
2018-05-18T09:30:35.937Z,1015.10
2018-05-18T09:31:35.934Z,1015.03
2018-05-18T09:32:35.921Z,1015.13
2018-05-18T09:33:35.911Z,1015.29
2018-05-18T09:34:35.905Z,1015.21
2018-05-18T09:35:35.898Z,1015.27
2018-05-18T09:36:35.886Z,1015.26
2018-05-18T09:37:35.877Z,1015.21
2018-05-18T09:38:35.870Z,1015.15
2018-05-18T09:39:35.861Z,1015.14
2018-05-18T09:40:35.856Z,1015.09
2018-05-18T09:41:35.842Z,1015.15
2018-05-18T09:42:35.836Z,1015.26
2018-05-18T09:44:35.823Z,1015.14
2018-05-18T09:45:35.812Z,1015.15
2018-05-18T09:46:35.816Z,1015.18
2018-05-18T09:47:35.794Z,1015.19
2018-05-18T09:48:35.786Z,1015.33
2018-05-18T09:49:35.780Z,1015.16
2018-05-18T09:50:35.775Z,1015.10
2018-05-18T09:51:35.764Z,1015.15
2018-05-18T09:52:35.761Z,1015.17
2018-05-18T09:53:35.746Z,1015.21
2018-05-18T09:54:35.885Z,1015.37
2018-05-18T09:55:35.791Z,1015.59
2018-05-18T09:56:35.729Z,1015.36
2018-05-18T09:57:35.716Z,1015.29
2018-05-18T09:58:35.709Z,1015.20
2018-05-18T09:59:35.704Z,1015.18
2018-05-18T10:00:35.717Z,1015.26
2018-05-18T10:01:35.693Z,1015.37
2018-05-18T10:02:35.681Z,1015.35
2018-05-18T10:03:35.671Z,1015.55
2018-05-18T10:04:35.664Z,1015.41
2018-05-18T10:05:35.658Z,1015.36
2018-05-18T10:06:35.650Z,1015.35
2018-05-18T10:07:35.643Z,1015.30
2018-05-18T10:08:35.640Z,1016.03
2018-05-18T10:09:35.629Z,1015.33
2018-05-18T10:10:35.621Z,1015.40
2018-05-18T10:11:35.615Z,1015.37
2018-05-18T10:12:35.609Z,1015.38
2018-05-18T10:13:35.608Z,1015.31
2018-05-18T10:14:35.595Z,1015.30
2018-05-18T10:15:35.586Z,1015.32
2018-05-18T10:16:35.580Z,1015.39
2018-05-18T10:17:35.572Z,1016.23
2018-05-18T10:18:35.673Z,1015.42
2018-05-18T10:19:35.559Z,1015.35
2018-05-18T10:20:35.553Z,1015.33
2018-05-18T10:21:35.548Z,1015.43
2018-05-18T10:22:35.540Z,1015.38
2018-05-18T10:23:35.534Z,1015.36
2018-05-18T10:24:35.526Z,1015.43
2018-05-18T10:25:35.531Z,1015.45
2018-05-18T10:26:35.515Z,1015.40
2018-05-18T10:27:35.508Z,1015.42
2018-05-18T10:28:35.505Z,1015.39
2018-05-18T10:29:35.496Z,1015.49
2018-05-18T10:30:35.486Z,1015.45
2018-05-18T10:31:35.481Z,1015.42
2018-05-18T10:32:35.477Z,1015.43
2018-05-18T10:33:35.470Z,1015.41
2018-05-18T10:34:35.461Z,1015.40
2018-05-18T10:35:35.457Z,1015.38
2018-05-18T10:36:35.449Z,1015.39
2018-05-18T10:37:35.443Z,1015.42
2018-05-18T10:38:35.438Z,1015.40
2018-05-18T10:39:35.510Z,1015.42
2018-05-18T10:40:35.424Z,1015.44
2018-05-18T10:41:35.417Z,1015.46
2018-05-18T10:42:35.412Z,1015.44
2018-05-18T10:43:35.406Z,1015.48
2018-05-18T10:44:35.401Z,1015.49
2018-05-18T10:45:35.392Z,1015.51
2018-05-18T10:46:35.387Z,1015.81
2018-05-18T10:47:35.379Z,1015.58
2018-05-18T10:48:35.376Z,1015.60
2018-05-18T10:49:35.366Z,1015.57
2018-05-18T10:50:35.362Z,1015.81
2018-05-18T10:51:35.353Z,1015.63
2018-05-18T10:52:35.353Z,1015.50
2018-05-18T10:53:35.347Z,1015.54
2018-05-18T10:54:35.350Z,1015.53
2018-05-18T10:55:35.331Z,1015.53
2018-05-18T10:56:35.326Z,1015.60
2018-05-18T10:57:35.323Z,1015.84
2018-05-18T10:58:35.380Z,1015.79
2018-05-18T10:59:35.311Z,1015.92
2018-05-18T11:00:35.302Z,1016.30
2018-05-18T11:01:35.301Z,1015.65
2018-05-18T11:02:35.296Z,1015.66
2018-05-18T11:03:35.285Z,1015.75
2018-05-18T11:04:35.278Z,1015.72
2018-05-18T11:05:35.281Z,1015.83
2018-05-18T11:06:35.273Z,1016.06
2018-05-18T11:07:35.264Z,1016.21
2018-05-18T11:08:35.262Z,1015.67
2018-05-18T11:09:35.257Z,1015.68
2018-05-18T11:10:35.257Z,1015.62
2018-05-18T11:11:52.213Z,1015.69
2018-05-18T11:12:52.172Z,1015.79
2018-05-18T11:13:52.216Z,1015.64
2018-05-18T11:14:52.163Z,1015.58
2018-05-18T11:15:52.156Z,1015.54
2018-05-18T11:16:52.153Z,1015.55
2018-05-18T11:17:52.151Z,1015.50
2018-05-18T11:18:52.144Z,1015.48
2018-05-18T11:19:52.139Z,1015.50
2018-05-18T11:20:52.135Z,1015.52
2018-05-18T11:21:52.133Z,1015.85
2018-05-18T11:22:52.123Z,1015.47
2018-05-18T11:23:52.122Z,1015.48
2018-05-18T11:24:52.115Z,1015.53
2018-05-18T11:25:52.110Z,1015.65
2018-05-18T11:26:52.107Z,1015.62
2018-05-18T11:27:52.100Z,1015.58
2018-05-18T11:28:52.098Z,1015.56
2018-05-18T11:29:52.091Z,1015.47
2018-05-18T11:30:52.084Z,1015.47
2018-05-18T11:31:52.084Z,1015.51
2018-05-18T11:32:52.075Z,1015.55
2018-05-18T11:33:52.073Z,1015.58
2018-05-18T11:34:52.069Z,1015.61
2018-05-18T11:35:52.064Z,1015.65
2018-05-18T11:36:52.055Z,1015.62
2018-05-18T11:37:52.050Z,1015.58
2018-05-18T11:38:52.045Z,1015.54
2018-05-18T11:39:52.039Z,1015.56
2018-05-18T11:40:52.036Z,1015.55
2018-05-18T11:41:52.033Z,1015.53
2018-05-18T11:42:52.024Z,1015.54
2018-05-18T11:43:52.019Z,1015.50
2018-05-18T11:44:52.015Z,1015.49
2018-05-18T11:45:52.008Z,1015.49
2018-05-18T11:46:52.004Z,1015.50
2018-05-18T11:47:51.995Z,1015.51
2018-05-18T11:48:51.991Z,1015.47
2018-05-18T11:49:51.990Z,1015.47
2018-05-18T11:50:51.980Z,1015.48
2018-05-18T11:51:51.978Z,1015.49
2018-05-18T11:52:51.977Z,1015.48
2018-05-18T11:53:51.964Z,1015.53
2018-05-18T11:54:51.962Z,1015.53
2018-05-18T11:55:51.956Z,1015.45
2018-05-18T11:56:51.946Z,1015.45
2018-05-18T11:57:51.941Z,1015.50
2018-05-18T11:58:51.985Z,1015.51
2018-05-18T11:59:51.935Z,1015.52
2018-05-18T12:00:51.934Z,1015.50
2018-05-18T12:01:51.922Z,1015.45
2018-05-18T12:02:51.917Z,1015.49
2018-05-18T12:03:51.910Z,1015.49
2018-05-18T12:04:51.897Z,1015.49
2018-05-18T12:05:51.893Z,1015.47
2018-05-18T12:06:51.888Z,1015.47